Terminal Aerodrome Forecast
Issued by NWS

Home | Current Version | Previous Version | Text Only | Print | Product List | Glossary On
Versions: 1 2 3 4 5 6 7 8 9 10 11 12 13 14 15 16 17 18 19 20 21 22 23 24 25 26 27 28 29 30 31 32 33 34
000
FTUS43 KPAH 211300 AAA
TAFOWB
TAF AMD
KOWB 211310Z 2113/2212 09003KT 2SM BR FEW250
     FM211400 12004KT 4SM BR SCT250
     FM211600 12006KT P6SM FEW035 SCT250
     FM221000 14007KT P6SM BKN015=

USA.gov is the U.S. government's official web portal to all federal, state and local government web resources and services.